createdAt,value
2023-02-03T00:01:49.201Z,6.60
2023-02-03T00:03:50.929Z,6.60
2023-02-03T00:05:52.860Z,6.60
2023-02-03T00:07:54.601Z,6.60
2023-02-03T00:09:57.621Z,6.60
2023-02-03T00:11:59.296Z,6.50
2023-02-03T00:14:01.034Z,6.50
2023-02-03T00:16:02.806Z,6.50
2023-02-03T00:18:04.519Z,6.50
2023-02-03T00:20:06.589Z,6.50
2023-02-03T00:22:08.312Z,6.50
2023-02-03T00:24:10.055Z,6.50
2023-02-03T00:26:14.297Z,6.50
2023-02-03T00:28:16.156Z,6.50
2023-02-03T00:30:18.130Z,6.50
2023-02-03T00:32:20.013Z,6.50
2023-02-03T00:34:22.108Z,6.50
2023-02-03T00:36:25.292Z,6.50
2023-02-03T00:38:29.907Z,6.50
2023-02-03T00:40:31.651Z,6.50
2023-02-03T00:42:35.641Z,6.50
2023-02-03T00:44:37.393Z,6.50
2023-02-03T00:46:39.642Z,6.50
2023-02-03T00:48:41.399Z,6.50
2023-02-03T00:50:45.704Z,6.50
2023-02-03T00:52:47.511Z,6.50
2023-02-03T00:54:49.300Z,6.50
2023-02-03T00:56:51.125Z,6.40
2023-02-03T00:58:52.809Z,6.50
2023-02-03T01:00:56.772Z,6.50
2023-02-03T01:02:58.543Z,6.50
2023-02-03T01:05:00.229Z,6.50
2023-02-03T01:07:02.239Z,6.50
2023-02-03T01:09:04.009Z,6.50
2023-02-03T01:11:07.591Z,6.50
2023-02-03T01:13:11.342Z,6.50
2023-02-03T01:15:13.225Z,6.50
2023-02-03T01:17:15.201Z,6.50
2023-02-03T01:19:17.040Z,6.50
2023-02-03T01:21:24.747Z,6.50
2023-02-03T01:23:26.532Z,6.50
2023-02-03T01:25:28.222Z,6.40
2023-02-03T01:27:31.487Z,6.40
2023-02-03T01:29:33.253Z,6.30
2023-02-03T01:31:39.685Z,6.30
2023-02-03T01:33:42.212Z,6.30
2023-02-03T01:35:43.870Z,6.40
2023-02-03T01:37:45.568Z,6.40
2023-02-03T01:39:47.259Z,6.40
2023-02-03T01:41:49.105Z,6.40
2023-02-03T01:43:54.047Z,6.40
2023-02-03T01:45:55.899Z,6.40
2023-02-03T01:48:00.110Z,6.40
2023-02-03T01:50:10.326Z,6.40
2023-02-03T01:52:12.091Z,6.40
2023-02-03T01:54:24.693Z,6.40
2023-02-03T01:56:30.057Z,6.40
2023-02-03T01:58:36.950Z,6.40
2023-02-03T02:00:38.997Z,6.50
2023-02-03T02:02:44.183Z,6.50
2023-02-03T02:04:58.062Z,6.50
2023-02-03T02:06:59.833Z,6.50
2023-02-03T02:09:01.795Z,6.50
2023-02-03T02:11:04.251Z,6.40
2023-02-03T02:13:06.165Z,6.40
2023-02-03T02:15:08.492Z,6.40
2023-02-03T02:17:12.865Z,6.40
2023-02-03T02:19:42.157Z,6.40
2023-02-03T02:21:55.788Z,6.40
2023-02-03T02:24:25.283Z,6.40
2023-02-03T02:26:49.329Z,6.40
2023-02-03T02:29:19.925Z,6.30
2023-02-03T02:31:45.895Z,6.30
2023-02-03T02:34:03.539Z,6.20
2023-02-03T02:36:25.940Z,6.20
2023-02-03T02:38:49.573Z,6.20
2023-02-03T02:41:05.164Z,6.20
2023-02-03T02:43:39.257Z,6.30
2023-02-03T02:45:50.816Z,6.30
2023-02-03T02:48:04.903Z,6.30
2023-02-03T02:50:19.109Z,6.20
2023-02-03T02:52:23.707Z,6.10
2023-02-03T02:54:26.603Z,6.10
2023-02-03T02:56:30.435Z,6.10
2023-02-03T02:58:35.088Z,6.10
2023-02-03T03:00:37.458Z,6.10
2023-02-03T03:02:39.420Z,6.20
2023-02-03T03:04:43.683Z,6.20
2023-02-03T03:06:50.267Z,6.10
2023-02-03T03:09:12.090Z,6.20
2023-02-03T03:11:14.132Z,6.30
2023-02-03T03:13:23.047Z,6.30
2023-02-03T03:15:28.207Z,6.30
2023-02-03T03:17:42.146Z,6.30
2023-02-03T03:19:51.603Z,6.30
2023-02-03T03:21:57.524Z,6.30
2023-02-03T03:24:03.840Z,6.30
2023-02-03T03:26:31.497Z,6.30
2023-02-03T03:28:48.263Z,6.30
2023-02-03T03:30:50.355Z,6.30
2023-02-03T03:32:52.840Z,6.30
2023-02-03T03:34:55.289Z,6.40
2023-02-03T03:37:06.916Z,6.30
2023-02-03T03:39:14.722Z,6.40
2023-02-03T03:41:25.986Z,6.40
2023-02-03T03:43:32.106Z,6.30
2023-02-03T03:46:03.719Z,6.30
2023-02-03T03:48:21.597Z,6.30
2023-02-03T03:50:31.729Z,6.30
2023-02-03T03:52:36.626Z,6.30
2023-02-03T03:54:41.074Z,6.40
2023-02-03T03:56:47.914Z,6.40
2023-02-03T03:58:52.507Z,6.40
2023-02-03T04:00:57.944Z,6.40
2023-02-03T04:03:05.279Z,6.40
2023-02-03T04:05:08.520Z,6.40
2023-02-03T04:07:10.422Z,6.40
2023-02-03T04:09:12.269Z,6.40
2023-02-03T04:11:33.909Z,6.40
2023-02-03T04:13:35.583Z,6.40
2023-02-03T04:15:37.942Z,6.40
2023-02-03T04:17:39.719Z,6.40
2023-02-03T04:19:41.601Z,6.40
2023-02-03T04:21:43.359Z,6.40
2023-02-03T04:23:45.070Z,6.40
2023-02-03T04:25:46.744Z,6.30
2023-02-03T04:27:48.613Z,6.40
2023-02-03T04:29:50.794Z,6.40
2023-02-03T04:31:52.479Z,6.30
2023-02-03T04:33:54.211Z,6.30
2023-02-03T04:35:55.949Z,6.30
2023-02-03T04:37:57.654Z,6.30
2023-02-03T04:39:59.375Z,6.20
2023-02-03T04:42:01.417Z,6.20
2023-02-03T04:44:03.120Z,6.20
2023-02-03T04:46:05.024Z,6.20
2023-02-03T04:48:06.803Z,6.20
2023-02-03T04:50:08.949Z,6.10
2023-02-03T04:52:10.823Z,6.10
2023-02-03T04:54:12.557Z,6.10
2023-02-03T04:56:15.998Z,6.10
2023-02-03T04:58:17.631Z,6.10
2023-02-03T05:00:19.684Z,6.10
2023-02-03T05:02:21.443Z,6.10
2023-02-03T05:04:23.460Z,6.10
2023-02-03T05:06:28.819Z,6.10
2023-02-03T05:08:30.867Z,6.00
2023-02-03T05:10:32.800Z,6.00
2023-02-03T05:12:34.470Z,5.90
2023-02-03T05:14:36.162Z,5.90
2023-02-03T05:16:37.903Z,5.90
2023-02-03T05:18:39.686Z,5.90
2023-02-03T05:20:41.344Z,5.90
2023-02-03T05:22:43.103Z,6.00
2023-02-03T05:24:44.850Z,6.00
2023-02-03T05:26:46.573Z,6.00
2023-02-03T05:28:48.283Z,6.00
2023-02-03T05:30:50.065Z,6.00
2023-02-03T05:32:51.964Z,6.00
2023-02-03T05:34:53.655Z,6.00
2023-02-03T05:36:55.379Z,6.00
2023-02-03T05:38:57.092Z,6.00
2023-02-03T05:41:17.513Z,6.00
2023-02-03T05:43:19.368Z,6.00
2023-02-03T05:45:21.193Z,6.00
2023-02-03T05:47:22.874Z,5.90
2023-02-03T05:49:25.225Z,6.00
2023-02-03T05:51:28.254Z,6.00
2023-02-03T05:53:30.770Z,5.90
2023-02-03T05:55:32.642Z,6.00
2023-02-03T05:57:34.439Z,5.90
2023-02-03T05:59:36.197Z,5.90
2023-02-03T06:01:38.230Z,5.90
2023-02-03T06:03:40.047Z,5.90
2023-02-03T06:05:43.509Z,5.90
2023-02-03T06:07:45.176Z,6.00
2023-02-03T06:09:47.438Z,5.90
2023-02-03T06:11:49.192Z,6.00
2023-02-03T06:13:51.467Z,5.90
2023-02-03T06:15:53.454Z,5.90
2023-02-03T06:17:55.172Z,6.00
2023-02-03T06:19:56.893Z,6.00
2023-02-03T06:21:58.662Z,6.00
2023-02-03T06:24:00.375Z,6.00
2023-02-03T06:26:02.206Z,6.00
2023-02-03T06:28:04.403Z,6.00
2023-02-03T06:30:06.574Z,6.00
2023-02-03T06:32:09.294Z,6.00
2023-02-03T06:34:11.030Z,6.00
2023-02-03T06:36:12.880Z,6.00
2023-02-03T06:38:14.627Z,6.00
2023-02-03T06:40:16.527Z,6.10
2023-02-03T06:42:18.688Z,6.10
2023-02-03T06:44:20.476Z,6.00
2023-02-03T06:46:22.361Z,6.10
2023-02-03T06:48:24.286Z,6.10
2023-02-03T06:50:26.401Z,6.10
2023-02-03T06:52:28.304Z,6.00
2023-02-03T06:54:30.347Z,6.10
2023-02-03T06:56:32.047Z,6.00
2023-02-03T06:58:33.811Z,6.00
2023-02-03T07:00:35.569Z,6.00
2023-02-03T07:02:37.478Z,6.00
2023-02-03T07:04:39.326Z,6.00
2023-02-03T07:06:41.046Z,6.00
2023-02-03T07:08:43.020Z,6.00
2023-02-03T07:10:44.723Z,6.00
2023-02-03T07:12:46.445Z,6.00
2023-02-03T07:14:48.167Z,6.00
2023-02-03T07:16:49.951Z,6.00
2023-02-03T07:18:51.643Z,6.00
2023-02-03T07:20:53.465Z,6.00
2023-02-03T07:22:56.775Z,6.00
2023-02-03T07:24:58.464Z,6.00
2023-02-03T07:27:00.456Z,6.00
2023-02-03T07:29:02.840Z,6.00
2023-02-03T07:31:04.974Z,6.00
2023-02-03T07:33:07.922Z,6.00
2023-02-03T07:35:09.731Z,6.00
2023-02-03T07:37:11.484Z,6.00
2023-02-03T07:39:13.191Z,6.10
2023-02-03T07:41:17.630Z,6.10
2023-02-03T07:43:20.165Z,6.00
2023-02-03T07:45:24.679Z,6.10
2023-02-03T07:47:26.609Z,6.00
2023-02-03T07:49:28.376Z,6.10
2023-02-03T07:51:30.228Z,6.00
2023-02-03T07:53:32.282Z,6.00
2023-02-03T07:55:34.362Z,6.00
2023-02-03T07:57:37.046Z,6.00
2023-02-03T07:59:38.743Z,6.00
2023-02-03T08:01:40.684Z,6.00
2023-02-03T08:03:43.000Z,6.00
2023-02-03T08:05:44.758Z,6.00
2023-02-03T08:07:47.507Z,6.10
2023-02-03T08:09:49.284Z,6.10
2023-02-03T08:11:51.103Z,6.20
2023-02-03T08:13:52.925Z,6.20
2023-02-03T08:15:54.721Z,6.20
2023-02-03T08:17:56.489Z,6.20
2023-02-03T08:19:58.245Z,6.20
2023-02-03T08:22:00.036Z,6.20
2023-02-03T08:24:01.742Z,6.30
2023-02-03T08:26:03.589Z,6.30
2023-02-03T08:28:05.503Z,6.30
2023-02-03T08:30:09.561Z,6.30
2023-02-03T08:32:12.946Z,6.30
2023-02-03T08:34:18.822Z,6.30
2023-02-03T08:36:21.179Z,6.20
2023-02-03T08:38:22.907Z,6.30
2023-02-03T08:40:24.630Z,6.30
2023-02-03T08:42:26.808Z,6.30
2023-02-03T08:44:28.663Z,6.30
2023-02-03T08:46:30.441Z,6.30
2023-02-03T08:48:32.403Z,6.30
2023-02-03T08:50:34.204Z,6.30
2023-02-03T08:52:36.147Z,6.30
2023-02-03T08:54:38.388Z,6.30
2023-02-03T08:56:41.031Z,6.30
2023-02-03T08:58:42.863Z,6.40
2023-02-03T09:00:44.926Z,6.40
2023-02-03T09:02:46.684Z,6.50
2023-02-03T09:04:49.461Z,6.50
2023-02-03T09:06:54.475Z,6.50
2023-02-03T09:08:56.831Z,6.60
2023-02-03T09:10:58.854Z,6.70
2023-02-03T09:13:00.553Z,6.70
2023-02-03T09:15:02.320Z,6.70
2023-02-03T09:17:05.506Z,6.60
2023-02-03T09:19:07.416Z,6.70
2023-02-03T09:21:20.939Z,6.70
2023-02-03T09:23:34.258Z,6.70
2023-02-03T09:25:35.927Z,6.60
2023-02-03T09:27:37.830Z,6.60
2023-02-03T09:29:39.664Z,6.70
2023-02-03T09:31:41.798Z,6.70
2023-02-03T09:33:44.445Z,6.70
2023-02-03T09:35:53.812Z,6.90
2023-02-03T09:37:55.750Z,6.80
2023-02-03T09:39:59.033Z,6.90
2023-02-03T09:42:10.322Z,7.00
2023-02-03T09:44:30.216Z,7.10
2023-02-03T09:46:42.070Z,7.00
2023-02-03T09:48:51.661Z,7.00
2023-02-03T09:50:54.289Z,7.10
2023-02-03T09:52:57.565Z,7.10
2023-02-03T09:55:03.692Z,7.20
2023-02-03T09:57:19.122Z,7.30
2023-02-03T09:59:21.125Z,7.30
2023-02-03T10:01:28.954Z,7.20
2023-02-03T10:03:42.430Z,7.20
2023-02-03T10:06:02.352Z,7.00
2023-02-03T10:08:25.410Z,7.10
2023-02-03T10:10:39.593Z,7.20
2023-02-03T10:12:47.105Z,7.20
2023-02-03T10:15:00.712Z,7.20
2023-02-03T10:17:19.434Z,7.30
2023-02-03T10:19:27.273Z,7.30
2023-02-03T10:21:47.133Z,7.20
2023-02-03T10:23:51.265Z,7.40
2023-02-03T10:25:57.326Z,7.40
2023-02-03T10:28:03.455Z,7.50
2023-02-03T10:30:21.337Z,7.30
2023-02-03T10:32:26.501Z,7.30
2023-02-03T10:34:28.171Z,7.40
2023-02-03T10:36:45.596Z,7.50
2023-02-03T10:38:58.862Z,7.40
2023-02-03T10:41:00.793Z,7.40
2023-02-03T10:43:21.066Z,7.40
2023-02-03T10:45:22.883Z,7.50
2023-02-03T10:47:29.261Z,7.40
2023-02-03T10:49:31.069Z,7.40
2023-02-03T10:51:49.007Z,7.40
2023-02-03T10:53:53.419Z,7.40
2023-02-03T10:56:11.805Z,7.60
2023-02-03T10:58:25.628Z,7.60
2023-02-03T11:00:34.305Z,7.70
2023-02-03T11:02:36.760Z,7.70
2023-02-03T11:04:38.639Z,7.80
2023-02-03T11:06:57.976Z,7.90
2023-02-03T11:09:00.013Z,8.00
2023-02-03T11:11:14.192Z,8.00
2023-02-03T11:13:23.840Z,8.30
2023-02-03T11:15:25.750Z,8.30
2023-02-03T11:17:30.354Z,8.30
2023-02-03T11:19:32.135Z,8.00
2023-02-03T11:21:38.100Z,8.00
2023-02-03T11:24:01.643Z,7.80
2023-02-03T11:26:14.948Z,7.60
2023-02-03T11:28:17.818Z,7.60
2023-02-03T11:30:30.370Z,7.60
2023-02-03T11:32:41.489Z,7.60
2023-02-03T11:34:53.884Z,7.60
2023-02-03T11:36:56.266Z,7.50
2023-02-03T11:39:21.593Z,7.50
2023-02-03T11:41:24.530Z,7.50
2023-02-03T11:43:26.856Z,7.50
2023-02-03T11:45:34.799Z,7.50
2023-02-03T11:47:36.627Z,7.50
2023-02-03T11:50:09.909Z,7.60
2023-02-03T11:52:33.889Z,7.70
2023-02-03T11:54:56.317Z,7.70
2023-02-03T11:57:07.818Z,7.70
2023-02-03T11:59:36.733Z,7.70
2023-02-03T12:02:16.555Z,7.70
2023-02-03T12:04:42.004Z,7.70
2023-02-03T12:07:05.356Z,7.80
2023-02-03T12:09:23.748Z,7.80
2023-02-03T12:11:40.537Z,7.80
2023-02-03T12:13:45.322Z,7.80
2023-02-03T12:16:11.032Z,7.80
2023-02-03T12:18:26.637Z,7.80
2023-02-03T12:20:49.307Z,7.80
2023-02-03T12:22:59.829Z,7.80
2023-02-03T12:25:17.075Z,7.80
2023-02-03T12:27:33.668Z,7.80
2023-02-03T12:29:43.373Z,7.90
2023-02-03T12:31:55.031Z,7.90
2023-02-03T12:34:08.701Z,8.00
2023-02-03T12:36:28.419Z,8.00
2023-02-03T12:38:38.127Z,8.00
2023-02-03T12:40:51.760Z,8.00
2023-02-03T12:43:12.844Z,8.00
2023-02-03T12:45:20.278Z,8.00
2023-02-03T12:47:43.289Z,8.00
2023-02-03T12:49:47.798Z,8.00
2023-02-03T12:52:05.719Z,8.00
2023-02-03T12:54:14.054Z,8.00
2023-02-03T12:56:25.535Z,8.10
2023-02-03T12:58:35.784Z,8.00
2023-02-03T13:01:07.454Z,8.00
2023-02-03T13:03:41.175Z,8.10
2023-02-03T13:05:50.250Z,8.00
2023-02-03T13:08:11.891Z,8.00
2023-02-03T13:10:25.962Z,8.00
2023-02-03T13:12:41.212Z,8.00
2023-02-03T13:14:56.107Z,8.00
2023-02-03T13:17:06.656Z,8.00
2023-02-03T13:19:22.195Z,8.00
2023-02-03T13:21:24.055Z,8.00
2023-02-03T13:23:26.926Z,8.10
2023-02-03T13:25:47.381Z,8.10
2023-02-03T13:28:08.113Z,8.10
2023-02-03T13:30:09.858Z,8.00
2023-02-03T13:32:59.904Z,8.10
2023-02-03T13:35:32.198Z,8.10
2023-02-03T13:37:43.727Z,8.10
2023-02-03T13:40:23.913Z,8.10
2023-02-03T13:42:27.613Z,8.20
2023-02-03T13:44:30.088Z,8.20
2023-02-03T13:46:33.578Z,8.20
2023-02-03T13:48:35.662Z,8.20
2023-02-03T13:50:38.711Z,8.20
2023-02-03T13:52:57.428Z,8.20
2023-02-03T13:55:00.172Z,8.20
2023-02-03T13:57:28.057Z,8.20
2023-02-03T13:59:43.422Z,8.20
2023-02-03T14:01:45.805Z,8.20
2023-02-03T14:03:47.531Z,8.20
2023-02-03T14:05:50.833Z,8.20
2023-02-03T14:07:52.656Z,8.20
2023-02-03T14:10:12.951Z,8.20
2023-02-03T14:12:35.821Z,8.20
2023-02-03T14:14:37.394Z,8.30
2023-02-03T14:16:43.703Z,8.30
2023-02-03T14:18:46.604Z,8.30
2023-02-03T14:20:51.934Z,8.30
2023-02-03T14:23:05.924Z,8.30
2023-02-03T14:25:08.232Z,8.30
2023-02-03T14:27:22.531Z,8.30
2023-02-03T14:29:36.621Z,8.40
2023-02-03T14:32:08.166Z,8.40
2023-02-03T14:34:14.419Z,8.40
2023-02-03T14:36:28.162Z,8.40
2023-02-03T14:38:33.252Z,8.50
2023-02-03T14:40:44.871Z,8.50
2023-02-03T14:43:11.741Z,8.50
2023-02-03T14:45:42.108Z,8.50
2023-02-03T14:48:29.234Z,8.40
2023-02-03T14:51:02.997Z,8.40
2023-02-03T14:53:29.444Z,8.40
2023-02-03T14:56:05.035Z,8.40
2023-02-03T14:58:23.364Z,8.40
2023-02-03T15:00:27.618Z,8.40
2023-02-03T15:02:31.795Z,8.40
2023-02-03T15:04:33.863Z,8.30
2023-02-03T15:06:47.471Z,8.30
2023-02-03T15:08:49.526Z,8.30
2023-02-03T15:10:51.385Z,8.30
2023-02-03T15:12:56.168Z,8.30
2023-02-03T15:15:36.746Z,8.20
2023-02-03T15:17:38.841Z,8.30
2023-02-03T15:19:42.512Z,8.30
2023-02-03T15:21:45.038Z,8.20
2023-02-03T15:23:49.385Z,8.20
2023-02-03T15:25:57.766Z,8.20
2023-02-03T15:28:20.505Z,8.20
2023-02-03T15:30:27.987Z,8.10
2023-02-03T15:32:40.357Z,8.10
2023-02-03T15:34:48.963Z,8.10
2023-02-03T15:36:54.714Z,8.10
2023-02-03T15:39:31.580Z,8.00
2023-02-03T15:41:33.763Z,8.00
2023-02-03T15:43:45.350Z,8.00
2023-02-03T15:46:00.986Z,8.00
2023-02-03T15:48:12.771Z,8.00
2023-02-03T15:50:23.502Z,8.00
2023-02-03T15:52:27.078Z,8.00
2023-02-03T15:54:40.389Z,8.00
2023-02-03T15:56:57.398Z,8.00
2023-02-03T15:58:59.230Z,7.90
2023-02-03T16:01:05.829Z,7.90
2023-02-03T16:03:21.410Z,8.00
2023-02-03T16:05:42.367Z,7.90
2023-02-03T16:07:44.262Z,7.90
2023-02-03T16:09:46.082Z,7.90
2023-02-03T16:11:47.827Z,7.90
2023-02-03T16:13:49.848Z,7.90
2023-02-03T16:16:05.773Z,7.90
2023-02-03T16:18:17.584Z,7.90
2023-02-03T16:20:23.075Z,7.90
2023-02-03T16:22:32.110Z,7.90
2023-02-03T16:24:42.472Z,7.80
2023-02-03T16:26:44.165Z,7.80
2023-02-03T16:29:23.610Z,7.80
2023-02-03T16:31:44.213Z,7.80
2023-02-03T16:34:07.376Z,8.00
2023-02-03T16:36:34.286Z,8.00
2023-02-03T16:38:54.762Z,7.80
2023-02-03T16:41:15.173Z,7.70
2023-02-03T16:43:36.142Z,7.70
2023-02-03T16:45:56.523Z,7.70
2023-02-03T16:48:16.695Z,7.70
2023-02-03T16:50:40.458Z,7.70
2023-02-03T16:52:42.174Z,7.70
2023-02-03T16:54:43.907Z,7.70
2023-02-03T16:56:45.917Z,7.70
2023-02-03T16:58:47.703Z,7.70
2023-02-03T17:00:52.247Z,7.70
2023-02-03T17:02:54.063Z,7.70
2023-02-03T17:04:55.832Z,7.60
2023-02-03T17:06:57.715Z,7.60
2023-02-03T17:08:59.560Z,7.60
2023-02-03T17:11:07.556Z,7.60
2023-02-03T17:13:09.587Z,7.60
2023-02-03T17:15:11.432Z,7.60
2023-02-03T17:17:13.193Z,7.60
2023-02-03T17:19:15.008Z,7.60
2023-02-03T17:21:23.263Z,7.60
2023-02-03T17:23:24.947Z,7.60
2023-02-03T17:25:26.994Z,7.60
2023-02-03T17:27:28.915Z,7.60
2023-02-03T17:29:30.795Z,7.60
2023-02-03T17:31:32.647Z,7.60
2023-02-03T17:33:36.231Z,7.60
2023-02-03T17:35:43.691Z,7.60
2023-02-03T17:37:45.443Z,7.60
2023-02-03T17:53:50.755Z,7.60
2023-02-03T17:55:52.601Z,7.60
2023-02-03T17:57:54.323Z,7.60
2023-02-03T17:59:56.823Z,7.60
2023-02-03T18:01:58.571Z,7.60
2023-02-03T18:04:02.725Z,7.60
2023-02-03T18:06:06.432Z,7.60
2023-02-03T18:08:16.175Z,7.60
2023-02-03T18:10:18.710Z,7.70
2023-02-03T18:12:20.554Z,7.60
2023-02-03T18:14:22.234Z,7.70
2023-02-03T18:16:27.799Z,7.70
2023-02-03T18:18:29.657Z,7.70
2023-02-03T18:20:31.643Z,7.70
2023-02-03T18:22:34.581Z,7.60
2023-02-03T18:24:38.756Z,7.70
2023-02-03T18:26:49.716Z,7.60
2023-02-03T18:28:53.258Z,7.70
2023-02-03T18:31:06.905Z,7.70
2023-02-03T18:33:08.671Z,7.70
2023-02-03T18:35:13.867Z,7.70
2023-02-03T18:37:15.629Z,7.70
2023-02-03T18:39:17.914Z,7.70
2023-02-03T18:41:24.360Z,7.70
2023-02-03T18:43:26.042Z,7.70
2023-02-03T18:45:28.900Z,7.70
2023-02-03T18:47:30.628Z,7.60
2023-02-03T18:49:33.403Z,7.60
2023-02-03T18:51:35.720Z,7.60
2023-02-03T18:53:38.378Z,7.60
2023-02-03T18:55:44.206Z,7.60
2023-02-03T18:57:46.843Z,7.60
2023-02-03T18:59:49.446Z,7.60
2023-02-03T19:01:51.512Z,7.60
2023-02-03T19:03:54.947Z,7.50
2023-02-03T19:05:56.952Z,7.50
2023-02-03T19:07:58.906Z,7.50
2023-02-03T19:10:01.348Z,7.50
2023-02-03T19:12:04.283Z,7.60
2023-02-03T19:14:05.973Z,7.50
2023-02-03T19:16:09.280Z,7.50
2023-02-03T19:18:11.299Z,7.50
2023-02-03T19:20:13.154Z,7.50
2023-02-03T19:22:15.188Z,7.60
2023-02-03T19:24:17.023Z,7.60
2023-02-03T19:26:18.856Z,7.70
2023-02-03T19:28:30.538Z,7.70
2023-02-03T19:30:33.376Z,7.70
2023-02-03T19:32:35.229Z,7.70
2023-02-03T19:34:37.074Z,7.70
2023-02-03T19:36:38.984Z,7.70
2023-02-03T19:38:40.778Z,7.70
2023-02-03T19:40:42.799Z,7.70
2023-02-03T19:42:44.731Z,7.60
2023-02-03T19:44:46.732Z,7.60
2023-02-03T19:46:48.738Z,7.60
2023-02-03T19:48:50.843Z,7.60
2023-02-03T19:50:52.826Z,7.60
2023-02-03T19:52:54.820Z,7.50
2023-02-03T19:54:56.984Z,7.50
2023-02-03T19:56:58.891Z,7.60
2023-02-03T19:59:00.866Z,7.60
2023-02-03T20:01:02.678Z,7.60
2023-02-03T20:03:04.705Z,7.60
2023-02-03T20:05:10.606Z,7.60
2023-02-03T20:07:15.196Z,7.60
2023-02-03T20:09:17.274Z,7.60
2023-02-03T20:11:22.261Z,7.60
2023-02-03T20:13:24.052Z,7.70
2023-02-03T20:15:25.911Z,7.70
2023-02-03T20:17:29.102Z,7.70
2023-02-03T20:19:30.804Z,7.70
2023-02-03T20:21:32.789Z,7.70
2023-02-03T20:23:34.595Z,7.70
2023-02-03T20:25:36.427Z,7.70
2023-02-03T20:27:38.417Z,7.80
2023-02-03T20:29:40.387Z,7.80
2023-02-03T20:31:42.076Z,7.90
2023-02-03T20:33:43.896Z,7.80
2023-02-03T20:35:46.210Z,7.80
2023-02-03T20:37:47.982Z,7.80
2023-02-03T20:39:49.861Z,7.80
2023-02-03T20:41:51.680Z,7.80
2023-02-03T20:43:53.512Z,7.90
2023-02-03T20:45:56.179Z,7.80
2023-02-03T20:48:00.925Z,7.90
2023-02-03T20:50:02.640Z,8.00
2023-02-03T20:52:16.399Z,8.00
2023-02-03T20:54:21.944Z,8.10
2023-02-03T20:56:23.932Z,8.10
2023-02-03T20:58:33.487Z,8.30
2023-02-03T21:00:35.522Z,8.40
2023-02-03T21:02:59.169Z,8.30
2023-02-03T21:05:09.385Z,8.30
2023-02-03T21:07:15.917Z,8.40
2023-02-03T21:09:22.445Z,8.40
2023-02-03T21:11:29.326Z,8.40
2023-02-03T21:13:38.081Z,8.40
2023-02-03T21:15:39.852Z,8.40
2023-02-03T21:17:41.609Z,8.50
2023-02-03T21:19:45.915Z,8.40
2023-02-03T21:21:47.663Z,8.50
2023-02-03T21:23:49.548Z,8.50
2023-02-03T21:25:51.381Z,8.50
2023-02-03T21:27:53.536Z,8.50
2023-02-03T21:29:57.547Z,8.50
2023-02-03T21:32:00.389Z,8.50
2023-02-03T21:34:04.750Z,8.50
2023-02-03T21:36:06.683Z,8.50
2023-02-03T21:38:31.415Z,8.50
2023-02-03T21:40:34.687Z,8.50
2023-02-03T21:42:42.724Z,8.60
2023-02-03T21:44:44.730Z,8.60
2023-02-03T21:46:46.481Z,8.70
2023-02-03T21:48:53.277Z,8.60
2023-02-03T21:51:02.765Z,8.60
2023-02-03T21:53:10.503Z,8.60
2023-02-03T21:55:15.925Z,8.60
2023-02-03T21:57:23.079Z,8.60
2023-02-03T21:59:31.400Z,8.60
2023-02-03T22:01:36.821Z,8.60
2023-02-03T22:03:40.841Z,8.60
2023-02-03T22:05:42.559Z,8.50
2023-02-03T22:07:44.359Z,8.50
2023-02-03T22:09:53.053Z,8.50
2023-02-03T22:11:54.734Z,8.60
2023-02-03T22:13:59.662Z,8.60
2023-02-03T22:16:01.645Z,8.60
2023-02-03T22:18:03.549Z,8.60
2023-02-03T22:20:05.905Z,8.60
2023-02-03T22:22:07.698Z,8.70
2023-02-03T22:24:09.490Z,8.80
2023-02-03T22:26:12.342Z,8.70
2023-02-03T22:28:17.643Z,8.70
2023-02-03T22:30:20.096Z,8.70
2023-02-03T22:32:24.314Z,8.70
2023-02-03T22:34:26.989Z,8.70
2023-02-03T22:36:28.875Z,8.70
2023-02-03T22:38:31.114Z,8.80
2023-02-03T22:40:33.283Z,8.80
2023-02-03T22:42:40.228Z,8.80
2023-02-03T22:44:47.796Z,8.80
2023-02-03T22:46:49.638Z,8.80
2023-02-03T22:48:51.668Z,8.80
2023-02-03T22:50:53.455Z,8.80
2023-02-03T22:52:55.826Z,8.80
2023-02-03T22:54:57.587Z,8.80
2023-02-03T22:56:59.312Z,8.80
2023-02-03T22:59:01.016Z,8.80
2023-02-03T23:01:03.088Z,8.80
2023-02-03T23:03:06.065Z,8.70
2023-02-03T23:05:09.472Z,8.70
2023-02-03T23:07:12.057Z,8.70
2023-02-03T23:09:14.122Z,8.80
2023-02-03T23:11:15.942Z,8.80
2023-02-03T23:13:17.799Z,8.70
2023-02-03T23:15:19.909Z,8.80
2023-02-03T23:17:24.768Z,8.80
2023-02-03T23:19:26.536Z,8.70
2023-02-03T23:21:28.271Z,8.80
2023-02-03T23:23:30.067Z,8.90
2023-02-03T23:25:31.819Z,8.90
2023-02-03T23:27:33.697Z,8.90
2023-02-03T23:29:38.001Z,8.80
2023-02-03T23:31:39.797Z,8.90
2023-02-03T23:34:01.586Z,8.90
2023-02-03T23:36:03.411Z,8.90
2023-02-03T23:38:05.181Z,8.90
2023-02-03T23:40:07.306Z,8.80
2023-02-03T23:42:09.394Z,8.80
2023-02-03T23:44:11.756Z,8.80
2023-02-03T23:46:13.814Z,8.80
2023-02-03T23:48:17.710Z,8.80
2023-02-03T23:50:20.157Z,8.70
2023-02-03T23:52:21.762Z,8.60
2023-02-03T23:54:23.468Z,8.70
2023-02-03T23:56:25.211Z,8.70
2023-02-03T23:58:27.014Z,8.70
